Time;durP1;ratioP1;P1;durP2;ratioP2;P2;SDS_P1;SDS_P2;PMS_P1;PMS_P2;Temp;Humidity;BMP_temperature;BMP_pressure;BME280_temperature;BME280_humidity;BME280_pressure;Samples;Min_cycle;Max_cycle;Signal;HPM_P1;HPM_P2
2023/05/16 00:01:47;;;;;;;17.98;12.77;;;;;;;;;;5019076;28;20133;-78
2023/05/16 00:04:14;;;;;;;14.43;12.73;;;;;;;;;;5003285;28;20059;-77
2023/05/16 00:06:41;;;;;;;15.95;12.75;;;;;;;;;;5002908;28;20104;-77
2023/05/16 00:09:08;;;;;;;15.68;13.40;;;;;;;;;;4999089;28;20121;-77
2023/05/16 00:11:34;;;;;;;14.55;12.95;;;;;;;;;;4998547;28;20058;-78
2023/05/16 00:14:01;;;;;;;16.10;12.55;;;;;;;;;;4994061;28;20062;-77
2023/05/16 00:16:28;;;;;;;14.98;12.93;;;;;;;;;;5002521;28;20053;-77
2023/05/16 00:18:59;;;;;;;15.02;12.88;;;;;;;;;;4997842;28;20115;-77
2023/05/16 00:21:27;;;;;;;15.63;13.27;;;;;;;;;;5016921;28;20057;-77
2023/05/16 00:23:53;;;;;;;15.35;13.07;;;;;;;;;;5000862;28;20057;-76
2023/05/16 00:26:21;;;;;;;18.73;14.45;;;;;;;;;;5033495;28;20124;-75
2023/05/16 00:28:47;;;;;;;15.38;13.38;;;;;;;;;;5016926;28;20061;-79
2023/05/16 00:31:14;;;;;;;16.13;13.27;;;;;;;;;;5003881;28;20053;-78
2023/05/16 00:33:41;;;;;;;16.85;13.15;;;;;;;;;;5005470;28;20057;-79
2023/05/16 00:36:08;;;;;;;15.32;12.73;;;;;;;;;;5021398;28;20096;-79
2023/05/16 00:38:35;;;;;;;14.23;12.40;;;;;;;;;;5004024;28;20111;-79
2023/05/16 00:41:03;;;;;;;15.30;13.38;;;;;;;;;;5020281;28;20100;-78
2023/05/16 00:43:30;;;;;;;16.98;13.82;;;;;;;;;;5002911;28;20412;-78
2023/05/16 00:45:56;;;;;;;17.05;13.85;;;;;;;;;;5020066;28;20079;-78
2023/05/16 00:48:23;;;;;;;15.95;13.55;;;;;;;;;;5001978;28;20053;-75
2023/05/16 00:50:51;;;;;;;14.55;12.82;;;;;;;;;;5000499;28;20050;-76
2023/05/16 00:53:18;;;;;;;15.73;13.48;;;;;;;;;;5000552;28;20140;-76
2023/05/16 00:55:46;;;;;;;17.13;13.90;;;;;;;;;;5016303;28;20489;-76
2023/05/16 00:58:13;;;;;;;15.02;12.63;;;;;;;;;;5016308;28;20054;-77
2023/05/16 01:00:39;;;;;;;18.65;14.95;;;;;;;;;;5032749;28;20056;-76
2023/05/16 01:03:06;;;;;;;17.38;13.98;;;;;;;;;;5016581;28;20135;-76
2023/05/16 01:05:33;;;;;;;16.67;14.30;;;;;;;;;;4996457;28;20054;-76
2023/05/16 01:08:00;;;;;;;17.48;14.68;;;;;;;;;;5013189;28;20050;-76
2023/05/16 01:10:31;;;;;;;17.00;13.95;;;;;;;;;;4996804;28;20081;-76
2023/05/16 01:13:14;;;;;;;18.00;15.02;;;;;;;;;;5014602;28;20054;-83
2023/05/16 01:15:53;;;;;;;17.98;14.25;;;;;;;;;;4999314;28;20058;-80
2023/05/16 01:18:28;;;;;;;18.25;14.77;;;;;;;;;;4998684;28;20233;-77
2023/05/16 01:21:02;;;;;;;19.42;15.90;;;;;;;;;;4998672;28;20080;-77
2023/05/16 01:23:52;;;;;;;19.20;15.43;;;;;;;;;;5005043;28;20085;-77
2023/05/16 01:26:23;;;;;;;23.55;19.00;;;;;;;;;;5028626;28;20056;-76
2023/05/16 01:28:51;;;;;;;25.58;16.40;;;;;;;;;;5001695;28;20053;-77
2023/05/16 01:31:18;;;;;;;23.70;17.55;;;;;;;;;;5016176;28;20126;-77
2023/05/16 01:33:45;;;;;;;19.55;16.15;;;;;;;;;;5024515;28;20045;-76
2023/05/16 01:36:15;;;;;;;22.45;16.25;;;;;;;;;;5016021;28;20536;-76
2023/05/16 01:39:07;;;;;;;21.80;16.42;;;;;;;;;;5017521;28;20057;-78
2023/05/16 01:41:53;;;;;;;23.63;16.65;;;;;;;;;;5017360;28;20421;-78
2023/05/16 01:44:28;;;;;;;24.85;18.30;;;;;;;;;;5017933;28;20057;-77
2023/05/16 01:46:58;;;;;;;27.77;22.67;;;;;;;;;;5032704;28;20050;-77
2023/05/16 01:49:37;;;;;;;30.58;23.33;;;;;;;;;;5000232;28;20057;-77
2023/05/16 01:52:09;;;;;;;30.63;24.00;;;;;;;;;;5034077;28;20522;-78
2023/05/16 01:54:37;;;;;;;36.30;26.03;;;;;;;;;;5000037;28;20063;-77
2023/05/16 01:57:04;;;;;;;32.42;25.23;;;;;;;;;;5011676;28;20291;-76
2023/05/16 01:59:31;;;;;;;33.80;24.50;;;;;;;;;;4983564;28;20403;-76
2023/05/16 02:01:58;;;;;;;35.47;26.05;;;;;;;;;;4982773;28;20063;-78
2023/05/16 02:04:25;;;;;;;37.65;27.70;;;;;;;;;;4999677;28;20441;-78
2023/05/16 02:06:52;;;;;;;32.85;25.58;;;;;;;;;;5016375;28;20061;-78
2023/05/16 02:09:18;;;;;;;35.83;26.35;;;;;;;;;;5000386;28;20084;-77
2023/05/16 02:11:45;;;;;;;34.05;25.40;;;;;;;;;;5031829;28;20416;-78
2023/05/16 02:14:12;;;;;;;38.00;25.77;;;;;;;;;;5024512;28;20064;-78
2023/05/16 02:16:39;;;;;;;31.02;23.33;;;;;;;;;;5021515;28;20053;-78
2023/05/16 02:19:06;;;;;;;35.72;26.48;;;;;;;;;;5037903;28;20119;-78
2023/05/16 02:21:33;;;;;;;37.13;27.88;;;;;;;;;;5038875;28;20057;-76
2023/05/16 02:24:00;;;;;;;36.00;25.92;;;;;;;;;;5033397;28;20481;-76
2023/05/16 02:26:27;;;;;;;36.60;27.77;;;;;;;;;;5031839;28;20156;-77
2023/05/16 02:28:53;;;;;;;35.88;27.38;;;;;;;;;;5031773;28;20059;-78
2023/05/16 02:31:27;;;;;;;38.58;28.02;;;;;;;;;;4999896;28;20540;-78
2023/05/16 02:33:55;;;;;;;39.28;29.92;;;;;;;;;;4999921;28;20395;-77
2023/05/16 02:36:22;;;;;;;42.10;30.15;;;;;;;;;;4999497;28;20063;-77
2023/05/16 02:38:49;;;;;;;41.45;28.05;;;;;;;;;;5016144;28;20112;-77
2023/05/16 02:41:15;;;;;;;43.35;30.73;;;;;;;;;;5015302;28;20136;-77
2023/05/16 02:43:43;;;;;;;43.80;30.00;;;;;;;;;;5015871;28;20508;-77
2023/05/16 02:46:26;;;;;;;43.00;29.48;;;;;;;;;;4999373;28;20107;-77
2023/05/16 02:48:54;;;;;;;41.70;28.42;;;;;;;;;;4998542;28;20061;-77
2023/05/16 02:51:22;;;;;;;43.22;29.35;;;;;;;;;;5012748;28;20042;-77
2023/05/16 02:53:49;;;;;;;41.72;30.70;;;;;;;;;;5014342;28;20061;-77
2023/05/16 02:56:16;;;;;;;44.80;29.98;;;;;;;;;;5014740;28;20160;-78
2023/05/16 02:58:46;;;;;;;49.38;31.42;;;;;;;;;;5015099;28;20049;-79
2023/05/16 03:01:14;;;;;;;49.65;30.80;;;;;;;;;;4999139;28;20465;-78
2023/05/16 03:03:41;;;;;;;46.55;32.67;;;;;;;;;;5032349;28;20053;-78
2023/05/16 03:06:07;;;;;;;43.75;29.83;;;;;;;;;;5015211;28;20052;-78
2023/05/16 03:08:34;;;;;;;46.60;31.95;;;;;;;;;;5014856;28;20065;-77
2023/05/16 03:11:01;;;;;;;46.30;32.22;;;;;;;;;;5014360;28;20087;-77
2023/05/16 03:13:29;;;;;;;52.40;32.05;;;;;;;;;;5031387;28;20108;-77
2023/05/16 03:15:55;;;;;;;48.95;31.08;;;;;;;;;;5015790;28;20090;-78
2023/05/16 03:18:22;;;;;;;47.30;32.15;;;;;;;;;;5033933;28;20053;-77
2023/05/16 03:20:51;;;;;;;51.47;33.20;;;;;;;;;;5050500;28;20041;-78
2023/05/16 03:23:21;;;;;;;49.28;31.70;;;;;;;;;;5016081;28;20068;-78
2023/05/16 03:25:48;;;;;;;49.45;32.28;;;;;;;;;;4999826;28;20089;-77
2023/05/16 03:28:16;;;;;;;51.97;33.67;;;;;;;;;;4999801;28;20061;-78
2023/05/16 03:30:43;;;;;;;46.90;32.13;;;;;;;;;;4998678;28;20445;-79
2023/05/16 03:33:10;;;;;;;51.35;32.78;;;;;;;;;;5009565;28;20045;-79
2023/05/16 03:35:37;;;;;;;49.97;33.13;;;;;;;;;;5001841;28;20106;-79
2023/05/16 03:38:04;;;;;;;48.40;30.85;;;;;;;;;;5020414;28;20508;-79
2023/05/16 03:40:31;;;;;;;51.85;32.35;;;;;;;;;;5043363;28;21640;-77
2023/05/16 03:42:58;;;;;;;56.47;34.08;;;;;;;;;;5010700;28;20068;-79
2023/05/16 03:45:24;;;;;;;52.33;33.35;;;;;;;;;;4998701;28;20057;-78
2023/05/16 03:47:52;;;;;;;53.97;33.70;;;;;;;;;;5031517;28;20091;-78
2023/05/16 03:50:19;;;;;;;52.40;33.83;;;;;;;;;;5030763;28;20056;-78
2023/05/16 03:52:45;;;;;;;54.72;35.80;;;;;;;;;;5015459;28;20050;-78
2023/05/16 03:55:14;;;;;;;51.72;33.50;;;;;;;;;;5017981;28;20056;-78
2023/05/16 03:57:41;;;;;;;58.05;34.05;;;;;;;;;;5005651;28;20057;-78
2023/05/16 04:00:10;;;;;;;53.58;32.40;;;;;;;;;;5005624;28;20073;-78
2023/05/16 04:02:40;;;;;;;56.92;34.92;;;;;;;;;;5021869;28;20068;-78
2023/05/16 04:05:08;;;;;;;53.33;33.97;;;;;;;;;;5006022;28;20095;-78
2023/05/16 04:07:36;;;;;;;72.18;35.45;;;;;;;;;;5005696;28;20089;-78
2023/05/16 04:10:04;;;;;;;52.22;33.45;;;;;;;;;;5005489;28;20494;-78
2023/05/16 04:12:30;;;;;;;57.25;33.70;;;;;;;;;;5005579;28;20049;-78
2023/05/16 04:14:57;;;;;;;55.47;34.10;;;;;;;;;;5021853;28;20152;-77
2023/05/16 04:17:24;;;;;;;53.38;33.67;;;;;;;;;;5019943;28;20421;-76
2023/05/16 04:19:51;;;;;;;58.20;34.90;;;;;;;;;;5021853;28;20111;-77
2023/05/16 04:22:20;;;;;;;58.33;33.97;;;;;;;;;;5037540;28;20046;-76
2023/05/16 04:24:47;;;;;;;56.65;32.85;;;;;;;;;;5020480;28;20497;-77
2023/05/16 04:27:14;;;;;;;57.35;33.55;;;;;;;;;;5003925;28;20053;-77
2023/05/16 04:29:41;;;;;;;50.80;33.85;;;;;;;;;;5006671;28;20087;-76
2023/05/16 04:32:09;;;;;;;56.40;34.17;;;;;;;;;;5019776;28;20049;-76
2023/05/16 04:34:36;;;;;;;55.88;34.25;;;;;;;;;;5021357;28;20575;-79
2023/05/16 04:37:06;;;;;;;56.97;32.63;;;;;;;;;;5007909;28;20084;-84
2023/05/16 04:39:34;;;;;;;54.85;33.20;;;;;;;;;;5020872;28;20057;-79
2023/05/16 04:42:02;;;;;;;58.30;34.28;;;;;;;;;;5013569;28;20513;-78
2023/05/16 04:44:29;;;;;;;53.60;34.08;;;;;;;;;;5024465;28;20402;-79
2023/05/16 04:46:56;;;;;;;55.15;34.42;;;;;;;;;;5027380;28;20137;-80
2023/05/16 04:49:23;;;;;;;54.75;33.03;;;;;;;;;;5004430;28;20060;-81
2023/05/16 04:51:50;;;;;;;49.58;31.35;;;;;;;;;;5022186;28;20072;-79
2023/05/16 04:54:19;;;;;;;52.60;31.80;;;;;;;;;;5008197;28;20080;-80
2023/05/16 04:56:45;;;;;;;54.65;33.40;;;;;;;;;;5041846;28;20061;-80
2023/05/16 04:59:12;;;;;;;50.60;32.67;;;;;;;;;;5004304;28;20053;-79
2023/05/16 05:01:39;;;;;;;55.30;32.80;;;;;;;;;;5006863;28;20085;-80
2023/05/16 05:04:06;;;;;;;53.78;32.28;;;;;;;;;;4989324;28;20395;-81
2023/05/16 05:06:33;;;;;;;47.90;29.38;;;;;;;;;;5001084;28;20089;-80
2023/05/16 05:09:00;;;;;;;42.10;29.45;;;;;;;;;;5012725;28;20084;-80
2023/05/16 05:11:28;;;;;;;47.38;30.95;;;;;;;;;;5002919;28;20148;-79
2023/05/16 05:13:55;;;;;;;42.10;28.95;;;;;;;;;;5034623;28;20053;-79
2023/05/16 05:16:22;;;;;;;41.47;26.48;;;;;;;;;;5019967;28;20087;-80
2023/05/16 05:18:49;;;;;;;41.22;27.80;;;;;;;;;;5019252;28;20067;-80
2023/05/16 05:21:19;;;;;;;39.20;26.00;;;;;;;;;;5019001;28;20057;-80
2023/05/16 05:23:48;;;;;;;37.30;26.38;;;;;;;;;;5019099;28;20085;-80
2023/05/16 05:26:15;;;;;;;35.67;25.73;;;;;;;;;;5000953;28;20525;-77
2023/05/16 05:28:42;;;;;;;36.60;25.50;;;;;;;;;;5016013;28;20060;-77
2023/05/16 05:31:23;;;;;;;34.80;25.48;;;;;;;;;;5017964;28;20133;-76
2023/05/16 05:33:50;;;;;;;36.50;25.08;;;;;;;;;;4999759;28;20431;-77
2023/05/16 05:36:17;;;;;;;31.50;23.30;;;;;;;;;;4980533;28;20578;-76
2023/05/16 05:38:43;;;;;;;31.58;22.50;;;;;;;;;;5014964;28;20058;-76
2023/05/16 05:41:11;;;;;;;35.13;24.73;;;;;;;;;;4980596;28;20513;-78
2023/05/16 05:43:38;;;;;;;31.65;22.80;;;;;;;;;;4996037;28;20057;-78
2023/05/16 05:46:06;;;;;;;38.50;22.92;;;;;;;;;;4996196;28;20456;-75
2023/05/16 05:48:33;;;;;;;31.70;23.48;;;;;;;;;;5001311;28;20433;-80
2023/05/16 05:51:00;;;;;;;34.65;24.10;;;;;;;;;;5003366;28;20414;-78
2023/05/16 05:53:26;;;;;;;36.42;24.33;;;;;;;;;;5030600;28;20061;-82
2023/05/16 05:55:53;;;;;;;34.55;24.63;;;;;;;;;;5035522;28;20490;-78
2023/05/16 05:58:20;;;;;;;34.53;24.30;;;;;;;;;;5018721;28;20057;-85
2023/05/16 06:00:47;;;;;;;39.63;25.15;;;;;;;;;;5016698;28;20081;-76
2023/05/16 06:03:14;;;;;;;35.40;24.77;;;;;;;;;;5013882;28;20129;-75
2023/05/16 06:05:41;;;;;;;37.42;25.20;;;;;;;;;;5010560;28;20045;-75
2023/05/16 06:08:08;;;;;;;34.05;23.98;;;;;;;;;;4997475;28;20201;-75
2023/05/16 06:10:35;;;;;;;35.92;24.55;;;;;;;;;;5012298;28;20119;-80
2023/05/16 06:13:02;;;;;;;33.20;24.02;;;;;;;;;;5016179;28;20057;-75
2023/05/16 06:15:28;;;;;;;32.88;23.17;;;;;;;;;;5014236;28;20049;-75
2023/05/16 06:17:55;;;;;;;33.50;23.33;;;;;;;;;;5013101;28;20053;-76
2023/05/16 06:20:22;;;;;;;30.42;22.35;;;;;;;;;;5012625;28;20053;-75
2023/05/16 06:22:49;;;;;;;33.05;22.42;;;;;;;;;;5013117;28;20053;-75
2023/05/16 06:25:16;;;;;;;31.40;23.40;;;;;;;;;;4995398;28;20107;-75
2023/05/16 06:27:43;;;;;;;28.17;21.65;;;;;;;;;;5013112;28;20083;-75
2023/05/16 06:30:10;;;;;;;31.05;23.23;;;;;;;;;;5027890;28;20140;-75
2023/05/16 06:32:39;;;;;;;29.13;21.15;;;;;;;;;;5013141;28;20140;-75
2023/05/16 06:35:07;;;;;;;26.55;20.45;;;;;;;;;;5029571;28;20075;-75
2023/05/16 06:37:34;;;;;;;30.02;21.98;;;;;;;;;;5028120;28;20615;-75
2023/05/16 06:40:01;;;;;;;29.60;20.95;;;;;;;;;;5012773;28;20765;-75
2023/05/16 06:42:28;;;;;;;30.48;20.77;;;;;;;;;;5029617;28;20089;-75
2023/05/16 06:44:55;;;;;;;26.73;21.50;;;;;;;;;;5012886;28;20053;-75
2023/05/16 06:47:22;;;;;;;26.63;19.95;;;;;;;;;;5029140;28;20752;-75
2023/05/16 06:49:49;;;;;;;27.05;20.05;;;;;;;;;;5017790;28;20053;-74
2023/05/16 06:52:16;;;;;;;33.13;21.10;;;;;;;;;;4995980;28;20168;-78
2023/05/16 06:54:46;;;;;;;27.83;20.77;;;;;;;;;;4997353;28;20111;-78
2023/05/16 06:57:13;;;;;;;26.30;20.58;;;;;;;;;;5012909;28;20049;-78
2023/05/16 06:59:40;;;;;;;29.77;20.42;;;;;;;;;;5012232;28;20114;-78
2023/05/16 07:02:06;;;;;;;26.33;20.38;;;;;;;;;;5000861;28;20061;-78
2023/05/16 07:04:36;;;;;;;25.75;19.88;;;;;;;;;;5026164;28;20746;-78
2023/05/16 07:07:03;;;;;;;22.80;17.92;;;;;;;;;;4996748;28;20050;-77
2023/05/16 07:09:30;;;;;;;25.75;18.33;;;;;;;;;;5012146;28;20514;-78
2023/05/16 07:11:57;;;;;;;29.33;19.02;;;;;;;;;;5012015;28;20568;-77
2023/05/16 07:14:24;;;;;;;23.98;19.23;;;;;;;;;;4994632;28;20056;-78
2023/05/16 07:16:51;;;;;;;26.40;19.00;;;;;;;;;;5006399;28;20053;-77
2023/05/16 07:19:17;;;;;;;27.58;18.50;;;;;;;;;;5009475;28;20065;-77
2023/05/16 07:21:44;;;;;;;28.20;18.60;;;;;;;;;;5012383;28;20050;-78
2023/05/16 07:24:11;;;;;;;22.02;17.45;;;;;;;;;;5012655;28;20064;-77
2023/05/16 07:26:38;;;;;;;22.77;17.45;;;;;;;;;;4997795;28;20049;-77
2023/05/16 07:29:05;;;;;;;24.88;16.38;;;;;;;;;;5000037;28;20466;-77
2023/05/16 07:31:32;;;;;;;19.33;14.85;;;;;;;;;;5011687;28;20559;-78
2023/05/16 07:33:58;;;;;;;19.00;14.75;;;;;;;;;;5013914;28;20053;-77
2023/05/16 07:36:25;;;;;;;17.90;14.38;;;;;;;;;;5012628;28;20085;-78
2023/05/16 07:38:52;;;;;;;20.17;13.95;;;;;;;;;;5012606;28;20119;-79
2023/05/16 07:41:20;;;;;;;18.92;14.23;;;;;;;;;;5012518;28;20054;-78
2023/05/16 07:43:47;;;;;;;19.20;14.23;;;;;;;;;;5013453;28;20488;-78
2023/05/16 07:46:13;;;;;;;16.13;12.55;;;;;;;;;;5013343;28;20080;-77
2023/05/16 07:48:40;;;;;;;18.33;12.25;;;;;;;;;;5002043;28;20513;-80
2023/05/16 07:51:07;;;;;;;16.17;12.63;;;;;;;;;;5009337;28;20053;-81
2023/05/16 07:53:34;;;;;;;15.95;12.70;;;;;;;;;;5004749;28;20421;-76
2023/05/16 07:56:01;;;;;;;15.15;12.38;;;;;;;;;;5018464;28;20056;-76
2023/05/16 07:58:27;;;;;;;15.80;12.25;;;;;;;;;;4981576;28;20069;-78
2023/05/16 08:00:54;;;;;;;15.60;12.63;;;;;;;;;;4994609;28;20100;-74
2023/05/16 08:03:21;;;;;;;18.88;13.18;;;;;;;;;;4992780;28;20057;-75
2023/05/16 08:05:49;;;;;;;14.05;12.57;;;;;;;;;;5003589;28;20089;-78
2023/05/16 08:08:16;;;;;;;14.45;11.88;;;;;;;;;;5001746;28;20050;-75
2023/05/16 08:10:43;;;;;;;15.00;12.57;;;;;;;;;;5008262;28;20535;-73
2023/05/16 08:13:10;;;;;;;13.10;11.50;;;;;;;;;;4993357;28;20078;-85
2023/05/16 08:15:37;;;;;;;15.15;12.25;;;;;;;;;;4960534;28;20184;-77
2023/05/16 08:18:06;;;;;;;16.27;11.57;;;;;;;;;;4976035;28;20100;-77
2023/05/16 08:20:33;;;;;;;14.63;11.82;;;;;;;;;;4975609;28;20053;-76
2023/05/16 08:22:59;;;;;;;14.05;11.50;;;;;;;;;;4991958;28;20058;-78
2023/05/16 08:25:26;;;;;;;13.55;11.38;;;;;;;;;;4992515;28;20096;-77
2023/05/16 08:27:54;;;;;;;15.60;12.48;;;;;;;;;;4997814;28;20065;-79
2023/05/16 08:30:21;;;;;;;14.02;12.45;;;;;;;;;;4998808;28;20049;-85
2023/05/16 08:32:48;;;;;;;15.80;12.80;;;;;;;;;;4971558;28;20061;-84
2023/05/16 08:35:15;;;;;;;18.55;13.13;;;;;;;;;;5018141;28;20046;-83
2023/05/16 08:37:42;;;;;;;16.98;12.32;;;;;;;;;;5007121;28;20100;-85
2023/05/16 08:40:09;;;;;;;15.00;12.65;;;;;;;;;;5018537;28;20059;-84
2023/05/16 08:42:37;;;;;;;16.38;13.15;;;;;;;;;;5000262;28;20064;-74
2023/05/16 08:45:05;;;;;;;15.60;12.73;;;;;;;;;;5000313;28;20402;-77
2023/05/16 08:47:33;;;;;;;17.58;14.55;;;;;;;;;;5000529;28;20053;-76
2023/05/16 08:50:00;;;;;;;17.65;14.23;;;;;;;;;;5012834;28;20061;-76
2023/05/16 08:52:30;;;;;;;18.63;14.00;;;;;;;;;;4984021;28;20413;-77
2023/05/16 08:54:58;;;;;;;15.60;13.60;;;;;;;;;;5016423;28;20084;-77
2023/05/16 08:57:37;;;;;;;18.92;14.32;;;;;;;;;;5007291;28;20144;-76
2023/05/16 09:00:10;;;;;;;19.23;14.25;;;;;;;;;;5032921;28;20148;-76
2023/05/16 09:02:41;;;;;;;19.38;15.20;;;;;;;;;;5016299;28;20451;-75
2023/05/16 09:05:10;;;;;;;18.80;14.38;;;;;;;;;;5032854;28;20057;-78
2023/05/16 09:07:37;;;;;;;20.15;15.50;;;;;;;;;;5032898;28;20091;-77
2023/05/16 09:10:05;;;;;;;22.20;16.40;;;;;;;;;;5032696;28;20168;-76
2023/05/16 09:12:33;;;;;;;20.75;16.50;;;;;;;;;;4988377;28;20425;-77
2023/05/16 09:15:04;;;;;;;21.60;15.70;;;;;;;;;;5000156;28;20494;-75
2023/05/16 09:17:39;;;;;;;22.23;17.85;;;;;;;;;;4999920;28;20068;-75
2023/05/16 09:20:20;;;;;;;23.40;17.75;;;;;;;;;;5002484;28;20062;-80
2023/05/16 09:22:54;;;;;;;22.40;17.80;;;;;;;;;;4997434;28;20053;-80
2023/05/16 09:25:22;;;;;;;24.33;18.42;;;;;;;;;;4986677;28;20081;-76
2023/05/16 09:27:56;;;;;;;28.58;19.08;;;;;;;;;;5035861;28;20061;-76
2023/05/16 09:30:26;;;;;;;25.88;18.38;;;;;;;;;;5019016;28;20497;-75
2023/05/16 09:32:53;;;;;;;22.70;17.45;;;;;;;;;;5015662;28;20057;-76
2023/05/16 09:35:21;;;;;;;24.25;18.95;;;;;;;;;;4990555;28;20053;-76
2023/05/16 09:38:17;;;;;;;25.42;18.27;;;;;;;;;;5030988;28;20057;-76
2023/05/16 09:40:45;;;;;;;26.45;18.17;;;;;;;;;;4999097;28;20072;-75
2023/05/16 09:43:15;;;;;;;22.90;17.80;;;;;;;;;;4999235;28;20479;-74
2023/05/16 09:45:47;;;;;;;23.70;16.75;;;;;;;;;;5015597;28;20057;-74
2023/05/16 09:48:14;;;;;;;25.98;17.95;;;;;;;;;;4999620;28;20053;-74
2023/05/16 09:50:46;;;;;;;22.77;16.48;;;;;;;;;;5015455;28;20057;-73
2023/05/16 09:53:13;;;;;;;23.67;17.05;;;;;;;;;;4998974;28;20049;-73
2023/05/16 09:55:40;;;;;;;21.42;16.52;;;;;;;;;;5015034;28;20057;-74
2023/05/16 09:58:06;;;;;;;24.63;16.75;;;;;;;;;;5015216;28;20500;-74
2023/05/16 10:00:34;;;;;;;22.20;15.85;;;;;;;;;;5015084;28;20053;-74
2023/05/16 10:03:04;;;;;;;24.75;16.45;;;;;;;;;;4997177;28;20145;-73
2023/05/16 10:05:32;;;;;;;23.17;17.48;;;;;;;;;;4995785;28;20128;-74
2023/05/16 10:07:59;;;;;;;23.70;18.10;;;;;;;;;;4995607;28;20141;-74
2023/05/16 10:10:27;;;;;;;26.33;18.38;;;;;;;;;;4989806;28;20692;-73
2023/05/16 10:12:55;;;;;;;25.45;17.63;;;;;;;;;;5013385;28;20050;-75
2023/05/16 10:15:22;;;;;;;21.27;16.08;;;;;;;;;;4998261;28;20510;-75
2023/05/16 10:17:51;;;;;;;26.70;17.73;;;;;;;;;;5014541;28;20053;-75
2023/05/16 10:20:18;;;;;;;24.98;18.52;;;;;;;;;;4998534;28;20057;-75
2023/05/16 10:22:45;;;;;;;24.02;16.77;;;;;;;;;;4996041;28;20077;-75
2023/05/16 10:25:36;;;;;;;21.02;15.70;;;;;;;;;;4983501;28;20512;-75
2023/05/16 10:28:03;;;;;;;21.42;16.23;;;;;;;;;;5014489;28;20464;-75
2023/05/16 10:30:32;;;;;;;19.02;15.07;;;;;;;;;;5030817;28;20057;-75
2023/05/16 10:32:58;;;;;;;22.10;16.33;;;;;;;;;;4985287;28;20045;-75
2023/05/16 10:35:26;;;;;;;19.90;15.80;;;;;;;;;;5008379;28;20572;-75
2023/05/16 10:37:53;;;;;;;20.30;15.70;;;;;;;;;;5038462;28;20053;-75
2023/05/16 10:40:23;;;;;;;22.52;14.75;;;;;;;;;;5035126;28;20118;-75
2023/05/16 10:42:58;;;;;;;21.50;15.32;;;;;;;;;;5018879;28;20107;-75
2023/05/16 10:45:26;;;;;;;17.48;14.63;;;;;;;;;;4998332;28;20057;-75
2023/05/16 10:47:58;;;;;;;18.02;14.77;;;;;;;;;;5014054;28;20103;-75
2023/05/16 10:50:44;;;;;;;20.50;15.05;;;;;;;;;;5013905;28;20064;-75
2023/05/16 10:53:21;;;;;;;20.00;14.95;;;;;;;;;;4998818;28;20057;-75
2023/05/16 10:55:49;;;;;;;22.55;15.27;;;;;;;;;;4994573;28;20057;-75
2023/05/16 10:58:32;;;;;;;21.55;15.35;;;;;;;;;;4994183;28;20064;-75
2023/05/16 11:01:34;;;;;;;21.25;15.95;;;;;;;;;;4979120;28;20099;-75
2023/05/16 11:04:07;;;;;;;21.52;15.70;;;;;;;;;;4994118;28;20054;-75
2023/05/16 11:06:45;;;;;;;23.55;14.60;;;;;;;;;;4993725;28;20561;-75
2023/05/16 11:09:12;;;;;;;18.88;13.25;;;;;;;;;;5010607;28;20124;-76
2023/05/16 11:11:52;;;;;;;18.50;14.00;;;;;;;;;;4999073;28;20558;-75
2023/05/16 11:14:19;;;;;;;21.90;14.05;;;;;;;;;;5014031;28;20092;-75
2023/05/16 11:16:51;;;;;;;18.25;12.63;;;;;;;;;;5015192;28;20445;-75
2023/05/16 11:19:30;;;;;;;25.70;14.32;;;;;;;;;;4998137;28;20437;-75
2023/05/16 11:22:06;;;;;;;16.48;11.57;;;;;;;;;;4981371;28;20057;-75
2023/05/16 11:24:34;;;;;;;18.33;12.45;;;;;;;;;;5014624;28;20053;-75
2023/05/16 11:27:03;;;;;;;16.85;12.35;;;;;;;;;;5013775;28;20112;-75
2023/05/16 11:29:34;;;;;;;16.58;11.35;;;;;;;;;;5028695;28;20131;-75
2023/05/16 11:32:03;;;;;;;12.82;10.02;;;;;;;;;;5027060;28;20433;-76
2023/05/16 11:34:31;;;;;;;13.55;10.10;;;;;;;;;;4997502;28;20057;-75
2023/05/16 11:36:59;;;;;;;12.85;9.80;;;;;;;;;;4997415;28;20053;-75
2023/05/16 11:39:26;;;;;;;18.08;10.20;;;;;;;;;;5013304;28;20065;-75
2023/05/16 11:41:53;;;;;;;12.77;9.30;;;;;;;;;;5013098;28;20409;-75
2023/05/16 11:44:20;;;;;;;13.18;10.23;;;;;;;;;;5013336;28;20128;-78
2023/05/16 11:46:47;;;;;;;11.20;8.90;;;;;;;;;;5011245;28;20050;-82
2023/05/16 11:49:14;;;;;;;12.05;9.13;;;;;;;;;;4980132;28;20099;-76
2023/05/16 11:51:42;;;;;;;13.13;9.50;;;;;;;;;;5013789;28;20103;-75
2023/05/16 11:54:09;;;;;;;12.50;9.13;;;;;;;;;;4999120;28;20052;-75
2023/05/16 11:56:36;;;;;;;13.23;8.40;;;;;;;;;;4997732;28;20053;-75
2023/05/16 11:59:03;;;;;;;12.25;8.43;;;;;;;;;;5025921;28;20061;-75
2023/05/16 12:01:37;;;;;;;10.65;8.15;;;;;;;;;;5013129;28;20107;-75
2023/05/16 12:04:11;;;;;;;9.85;7.75;;;;;;;;;;5013459;28;20054;-75
2023/05/16 12:06:39;;;;;;;14.07;8.25;;;;;;;;;;5013330;28;20068;-75
2023/05/16 12:09:09;;;;;;;9.68;7.63;;;;;;;;;;4981349;28;20053;-75
2023/05/16 12:11:41;;;;;;;8.13;6.72;;;;;;;;;;4993941;28;20050;-75
2023/05/16 12:14:09;;;;;;;7.72;6.15;;;;;;;;;;5009869;28;20437;-75
2023/05/16 12:16:37;;;;;;;8.63;6.70;;;;;;;;;;4995682;28;20100;-75
2023/05/16 12:19:05;;;;;;;8.20;6.20;;;;;;;;;;4997756;28;20049;-75
2023/05/16 12:21:32;;;;;;;6.30;5.65;;;;;;;;;;5013499;28;20616;-75
2023/05/16 12:23:58;;;;;;;8.93;5.82;;;;;;;;;;4997896;28;20046;-75
2023/05/16 12:26:27;;;;;;;7.97;6.30;;;;;;;;;;4997790;28;20120;-76
2023/05/16 12:28:56;;;;;;;6.57;5.35;;;;;;;;;;4997725;28;20054;-76
2023/05/16 12:31:23;;;;;;;7.78;5.55;;;;;;;;;;4997353;28;20091;-77
2023/05/16 12:33:58;;;;;;;6.88;4.85;;;;;;;;;;5013646;28;20246;-76
2023/05/16 12:36:27;;;;;;;5.68;5.05;;;;;;;;;;4999889;28;20494;-76
2023/05/16 12:38:54;;;;;;;6.43;4.75;;;;;;;;;;5018732;28;20567;-77
2023/05/16 12:41:24;;;;;;;5.47;4.88;;;;;;;;;;5036979;28;20398;-77
2023/05/16 12:43:51;;;;;;;5.53;4.68;;;;;;;;;;5028552;28;20057;-76
2023/05/16 12:46:18;;;;;;;5.63;4.70;;;;;;;;;;4980830;28;20395;-76
2023/05/16 12:48:46;;;;;;;6.60;4.88;;;;;;;;;;5008411;28;20053;-76
2023/05/16 12:51:16;;;;;;;6.22;4.50;;;;;;;;;;5020200;28;20053;-75
2023/05/16 12:53:45;;;;;;;5.65;4.80;;;;;;;;;;5020698;28;20144;-74
2023/05/16 12:56:27;;;;;;;4.85;4.07;;;;;;;;;;5024302;28;20061;-75
2023/05/16 12:58:54;;;;;;;4.75;3.50;;;;;;;;;;5023970;28;20049;-75
2023/05/16 13:01:21;;;;;;;3.50;3.17;;;;;;;;;;5032952;28;20115;-75
2023/05/16 13:03:48;;;;;;;5.75;3.20;;;;;;;;;;5016614;28;20399;-75
2023/05/16 13:06:16;;;;;;;5.13;3.13;;;;;;;;;;5016138;28;20049;-75
2023/05/16 13:08:43;;;;;;;4.95;3.63;;;;;;;;;;5026745;28;20132;-73
2023/05/16 13:11:10;;;;;;;4.32;3.70;;;;;;;;;;5015946;28;20457;-73
2023/05/16 13:13:38;;;;;;;3.55;3.10;;;;;;;;;;5016070;28;20618;-74
2023/05/16 13:16:05;;;;;;;4.07;3.15;;;;;;;;;;5030648;28;20059;-75
2023/05/16 13:18:33;;;;;;;6.90;3.92;;;;;;;;;;5019832;28;20057;-74
2023/05/16 13:20:59;;;;;;;3.22;2.92;;;;;;;;;;5014958;28;20054;-74
2023/05/16 13:23:26;;;;;;;3.78;2.95;;;;;;;;;;4996823;28;20049;-74
2023/05/16 13:25:54;;;;;;;2.67;2.47;;;;;;;;;;4980555;28;20057;-74
2023/05/16 13:28:21;;;;;;;3.00;2.25;;;;;;;;;;4995829;28;20058;-75
2023/05/16 13:30:47;;;;;;;2.35;2.15;;;;;;;;;;4996333;28;20482;-74
2023/05/16 13:33:14;;;;;;;2.70;2.40;;;;;;;;;;4964268;28;20486;-75
2023/05/16 13:35:44;;;;;;;2.70;2.50;;;;;;;;;;4996569;28;20494;-74
2023/05/16 13:38:11;;;;;;;2.33;2.13;;;;;;;;;;4987453;28;20141;-74
2023/05/16 13:40:38;;;;;;;5.15;2.20;;;;;;;;;;4997418;28;20104;-74
2023/05/16 13:43:06;;;;;;;3.75;2.42;;;;;;;;;;4983092;28;20049;-74
2023/05/16 13:45:34;;;;;;;3.10;2.38;;;;;;;;;;4996572;28;20493;-74
2023/05/16 13:48:00;;;;;;;2.72;2.53;;;;;;;;;;4980953;28;20049;-75
2023/05/16 13:50:31;;;;;;;5.07;2.30;;;;;;;;;;4996752;28;20058;-74
2023/05/16 13:52:59;;;;;;;2.55;2.10;;;;;;;;;;4996229;28;20054;-74
2023/05/16 13:55:26;;;;;;;5.28;3.28;;;;;;;;;;4995595;28;20065;-74
2023/05/16 13:57:54;;;;;;;3.92;3.45;;;;;;;;;;4996222;28;20050;-74
2023/05/16 14:00:21;;;;;;;4.28;3.35;;;;;;;;;;4995721;28;20054;-74
2023/05/16 14:02:50;;;;;;;4.03;3.17;;;;;;;;;;5009848;28;20231;-74
2023/05/16 14:05:17;;;;;;;4.47;2.97;;;;;;;;;;5015414;28;20453;-74
2023/05/16 14:07:45;;;;;;;3.35;2.88;;;;;;;;;;5015389;28;20516;-75
2023/05/16 14:10:12;;;;;;;6.30;2.72;;;;;;;;;;5015203;28;20057;-74
2023/05/16 14:12:39;;;;;;;5.35;3.03;;;;;;;;;;5017294;28;20075;-74
2023/05/16 14:15:06;;;;;;;3.50;3.20;;;;;;;;;;5019694;28;20081;-75
2023/05/16 14:17:33;;;;;;;4.22;2.67;;;;;;;;;;5015340;28;20053;-75
2023/05/16 14:20:00;;;;;;;2.85;2.47;;;;;;;;;;5015136;28;20093;-74
2023/05/16 14:22:27;;;;;;;2.38;2.17;;;;;;;;;;4998163;28;20053;-74
2023/05/16 14:24:54;;;;;;;2.97;2.30;;;;;;;;;;5031139;28;20072;-74
2023/05/16 14:27:21;;;;;;;3.80;3.08;;;;;;;;;;5014624;28;20093;-74
2023/05/16 14:29:47;;;;;;;2.90;2.20;;;;;;;;;;5015018;28;20050;-74